Time;durP1;ratioP1;P1;durP2;ratioP2;P2;SDS_P1;SDS_P2;PMS_P1;PMS_P2;Temp;Humidity;BMP_temperature;BMP_pressure;BME280_temperature;BME280_humidity;BME280_pressure;Samples;Min_cycle;Max_cycle;Signal;HPM_P1;HPM_P2
2019/08/21 00:00:40;;;;;;;2.6;1.8;;;;;;;;;;;;;
2019/08/21 00:03:06;;;;;;;2.7;1.7;;;;;;;;;;;;;
2019/08/21 00:05:29;;;;;;;3.2;1.8;;;;;;;;;;;;;
2019/08/21 00:07:55;;;;;;;2.7;1.7;;;;;;;;;;;;;
2019/08/21 00:12:50;;;;;;;2.7;1.9;;;;;;;;;;;;;
2019/08/21 00:15:19;;;;;;;2.7;2;;;;;;;;;;;;;
2019/08/21 00:17:43;;;;;;;5.5;2.1;;;;;;;;;;;;;
2019/08/21 00:20:25;;;;;;;2.4;2.1;;;;;;;;;;;;;
2019/08/21 00:22:52;;;;;;;3.8;2.2;;;;;;;;;;;;;
2019/08/21 00:25:23;;;;;;;3.8;2.1;;;;;;;;;;;;;
2019/08/21 00:27:52;;;;;;;2.7;2.2;;;;;;;;;;;;;
2019/08/21 00:30:26;;;;;;;2.9;2.1;;;;;;;;;;;;;
2019/08/21 00:33:14;;;;;;;3;2.1;;;;;;;;;;;;;
2019/08/21 00:35:21;;;;;;;2.7;2;;;;;;;;;;;;;
2019/08/21 00:37:46;;;;;;;3.2;2;;;;;;;;;;;;;
2019/08/21 00:40:13;;;;;;;3.8;2.2;;;;;;;;;;;;;
2019/08/21 00:42:44;;;;;;;3.2;2.3;;;;;;;;;;;;;
2019/08/21 00:45:05;;;;;;;3.9;2.3;;;;;;;;;;;;;
2019/08/21 00:47:27;;;;;;;3.6;2.4;;;;;;;;;;;;;
2019/08/21 00:49:51;;;;;;;4.5;2.4;;;;;;;;;;;;;
2019/08/21 00:52:18;;;;;;;4.8;2.7;;;;;;;;;;;;;
2019/08/21 00:54:44;;;;;;;3.1;2.3;;;;;;;;;;;;;
2019/08/21 00:57:11;;;;;;;4.6;2.5;;;;;;;;;;;;;
2019/08/21 00:59:42;;;;;;;2.2;1.8;;;;;;;;;;;;;
2019/08/21 01:02:04;;;;;;;3.8;2.2;;;;;;;;;;;;;
2019/08/21 01:04:35;;;;;;;2.5;1.9;;;;;;;;;;;;;
2019/08/21 01:07:03;;;;;;;3.8;2.1;;;;;;;;;;;;;
2019/08/21 01:09:42;;;;;;;3.8;2.3;;;;;;;;;;;;;
2019/08/21 01:12:06;;;;;;;3.3;2.1;;;;;;;;;;;;;
2019/08/21 01:14:38;;;;;;;3.7;2.1;;;;;;;;;;;;;
2019/08/21 01:17:03;;;;;;;3.8;1.8;;;;;;;;;;;;;
2019/08/21 01:19:27;;;;;;;2.7;2;;;;;;;;;;;;;
2019/08/21 01:21:58;;;;;;;5.7;2.1;;;;;;;;;;;;;
2019/08/21 01:24:28;;;;;;;3.9;2.1;;;;;;;;;;;;;
2019/08/21 01:26:53;;;;;;;3.3;1.7;;;;;;;;;;;;;
2019/08/21 01:29:17;;;;;;;2.7;2;;;;;;;;;;;;;
2019/08/21 01:32:04;;;;;;;2.7;2;;;;;;;;;;;;;
2019/08/21 01:34:10;;;;;;;3;2.1;;;;;;;;;;;;;
2019/08/21 01:36:41;;;;;;;3.9;2.3;;;;;;;;;;;;;
2019/08/21 01:39:06;;;;;;;4;2.2;;;;;;;;;;;;;
2019/08/21 01:41:40;;;;;;;4.6;2.3;;;;;;;;;;;;;
2019/08/21 01:44:00;;;;;;;3.9;2.5;;;;;;;;;;;;;
2019/08/21 01:46:24;;;;;;;5.6;2.3;;;;;;;;;;;;;
2019/08/21 01:48:50;;;;;;;3.4;2.1;;;;;;;;;;;;;
2019/08/21 01:51:23;;;;;;;3.7;2;;;;;;;;;;;;;
2019/08/21 01:53:45;;;;;;;3.9;2;;;;;;;;;;;;;
2019/08/21 01:56:13;;;;;;;3.2;2;;;;;;;;;;;;;
2019/08/21 01:58:47;;;;;;;3.6;2.1;;;;;;;;;;;;;
2019/08/21 02:01:25;;;;;;;4.3;2;;;;;;;;;;;;;
2019/08/21 02:03:48;;;;;;;3.5;1.9;;;;;;;;;;;;;
2019/08/21 02:06:17;;;;;;;3.1;1.9;;;;;;;;;;;;;
2019/08/21 02:08:43;;;;;;;4;2;;;;;;;;;;;;;
2019/08/21 02:11:11;;;;;;;3.5;2.1;;;;;;;;;;;;;
2019/08/21 02:13:34;;;;;;;3.5;2.2;;;;;;;;;;;;;
2019/08/21 02:16:16;;;;;;;4.1;1.9;;;;;;;;;;;;;
2019/08/21 02:18:33;;;;;;;3.5;2.1;;;;;;;;;;;;;
2019/08/21 02:20:55;;;;;;;2.7;2;;;;;;;;;;;;;
2019/08/21 02:23:23;;;;;;;4.1;1.9;;;;;;;;;;;;;
2019/08/21 02:28:14;;;;;;;3.9;2.3;;;;;;;;;;;;;
2019/08/21 02:30:43;;;;;;;3;2;;;;;;;;;;;;;
2019/08/21 02:33:09;;;;;;;3.6;2.3;;;;;;;;;;;;;
2019/08/21 02:35:34;;;;;;;4.4;2.3;;;;;;;;;;;;;
2019/08/21 02:38:01;;;;;;;4.8;2.6;;;;;;;;;;;;;
2019/08/21 02:43:11;;;;;;;2.6;2;;;;;;;;;;;;;
2019/08/21 02:45:44;;;;;;;3;2.2;;;;;;;;;;;;;
2019/08/21 02:48:07;;;;;;;3.5;2;;;;;;;;;;;;;
2019/08/21 02:50:30;;;;;;;3.8;2;;;;;;;;;;;;;
2019/08/21 02:52:57;;;;;;;4;2;;;;;;;;;;;;;
2019/08/21 02:58:18;;;;;;;3.1;2;;;;;;;;;;;;;
2019/08/21 03:03:05;;;;;;;3.1;2.1;;;;;;;;;;;;;
2019/08/21 03:05:37;;;;;;;3.4;2.1;;;;;;;;;;;;;
2019/08/21 03:08:01;;;;;;;2.9;2;;;;;;;;;;;;;
2019/08/21 03:10:30;;;;;;;2.9;2;;;;;;;;;;;;;
2019/08/21 03:12:55;;;;;;;2.7;2.1;;;;;;;;;;;;;
2019/08/21 03:15:28;;;;;;;2.5;2;;;;;;;;;;;;;
2019/08/21 03:17:58;;;;;;;2.7;2;;;;;;;;;;;;;
2019/08/21 03:20:19;;;;;;;3;2.2;;;;;;;;;;;;;
2019/08/21 03:22:49;;;;;;;2.8;2;;;;;;;;;;;;;
2019/08/21 03:25:18;;;;;;;2.8;2.1;;;;;;;;;;;;;
2019/08/21 03:27:43;;;;;;;2.8;2.1;;;;;;;;;;;;;
2019/08/21 03:30:22;;;;;;;3;2;;;;;;;;;;;;;
2019/08/21 03:35:23;;;;;;;2.7;2.1;;;;;;;;;;;;;
2019/08/21 03:37:45;;;;;;;3.2;2.4;;;;;;;;;;;;;
2019/08/21 03:40:18;;;;;;;3.3;2.3;;;;;;;;;;;;;
2019/08/21 03:42:45;;;;;;;4.1;2.5;;;;;;;;;;;;;
2019/08/21 03:45:17;;;;;;;2.6;2;;;;;;;;;;;;;
2019/08/21 03:47:46;;;;;;;2.6;2.1;;;;;;;;;;;;;
2019/08/21 03:50:05;;;;;;;3.5;2.2;;;;;;;;;;;;;
2019/08/21 03:52:32;;;;;;;5.5;2.4;;;;;;;;;;;;;
2019/08/21 03:55:02;;;;;;;4.2;2.2;;;;;;;;;;;;;
2019/08/21 03:57:29;;;;;;;2.5;2.2;;;;;;;;;;;;;
2019/08/21 03:59:58;;;;;;;4.1;2.3;;;;;;;;;;;;;
2019/08/21 04:02:33;;;;;;;3;2.2;;;;;;;14.64;86.69727;949.1702;;;;
2019/08/21 04:05:10;;;;;;;3.9;2.1;;;;;;;14.67;86.8291;949.0751;;;;
2019/08/21 04:08:17;;;;;;;3.6;2.2;;;;;;;14.71;86.67676;948.9681;;;;
2019/08/21 04:10:48;;;;;;;2.2;1.9;;;;;;;14.72;86.05762;948.9842;;;;
2019/08/21 04:13:25;;;;;;;3.5;2;;;;;;;14.69;86.14258;948.9967;;;;
2019/08/21 04:16:02;;;;;;;3;1.8;;;;;;;14.72;85.97559;948.9377;;;;
2019/08/21 04:18:38;;;;;;;2.8;1.8;;;;;;;14.65;86.10156;948.9146;;;;
2019/08/21 04:21:24;;;;;;;2.8;1.7;;;;;;;14.7;85.78906;948.9624;;;;
2019/08/21 04:24:09;;;;;;;4.4;1.6;;;;;;;14.69;85.47461;949.0553;;;;
2019/08/21 04:26:42;;;;;;;1.9;1.4;;;;;;;14.7;85.54688;949.0112;;;;
2019/08/21 04:29:20;;;;;;;2.3;1.4;;;;;;;14.6;86.00977;949.1581;;;;
2019/08/21 04:31:47;;;;;;;2.2;1.5;;;;;;;14.3;86.75781;949.1019;;;;
2019/08/21 04:34:31;;;;;;;3.5;1.7;;;;;;;14.28;87.08789;949.06;;;;
2019/08/21 04:37:03;;;;;;;2.1;1.5;;;;;;;14.4;87.1709;949.1479;;;;
2019/08/21 04:39:41;;;;;;;1.9;1.4;;;;;;;14.28;86.56934;949.1498;;;;
2019/08/21 04:42:28;;;;;;;2.9;1.4;;;;;;;14.27;86.66016;949.1544;;;;
2019/08/21 04:45:02;;;;;;;2.3;1.4;;;;;;;14.08;87.44922;949.1644;;;;
2019/08/21 04:47:33;;;;;;;1.8;1.3;;;;;;;14.08;87.55469;949.1141;;;;
2019/08/21 04:50:06;;;;;;;3.1;1.6;;;;;;;13.91;88.28906;949.0873;;;;
2019/08/21 04:52:44;;;;;;;1.7;1.5;;;;;;;14.02;87.76074;949.1805;;;;
2019/08/21 04:55:09;;;;;;;2.5;1.5;;;;;;;14.03;87.47266;949.2086;;;;
2019/08/21 04:57:41;;;;;;;2.7;1.6;;;;;;;13.97;87.73828;949.181;;;;
2019/08/21 05:00:13;;;;;;;2.3;1.5;;;;;;;14.13;87.53125;949.2028;;;;
2019/08/21 05:02:40;;;;;;;1.7;1.3;;;;;;;14.15;87.0625;949.207;;;;
2019/08/21 05:05:15;;;;;;;2.9;1.4;;;;;;;14.12;87.71191;949.2475;;;;
2019/08/21 05:07:34;;;;;;;1.6;1.4;;;;;;;14.22;86.84668;949.2459;;;;
2019/08/21 05:10:08;;;;;;;2.9;1.5;;;;;;;14.28;86.67285;949.1682;;;;
2019/08/21 05:12:33;;;;;;;1.7;1.2;;;;;;;14.37;86.05762;949.1653;;;;
2019/08/21 05:15:16;;;;;;;1.6;1.4;;;;;;;14.43;85.94336;949.0953;;;;
2019/08/21 05:18:01;;;;;;;3.3;1.6;;;;;;;14.45;86.05078;949.0475;;;;
2019/08/21 05:20:31;;;;;;;2.5;1.4;;;;;;;14.48;86.29785;949.0198;;;;
2019/08/21 05:23:27;;;;;;;2.8;1.3;;;;;;;14.49;85.93066;949.0455;;;;
2019/08/21 05:26:00;;;;;;;1.8;1.2;;;;;;;14.54;86.1377;949.0597;;;;
2019/08/21 05:28:27;;;;;;;1.7;1.3;;;;;;;14.39;86.10742;949.0389;;;;
2019/08/21 05:31:29;;;;;;;3.3;1.3;;;;;;;14.55;86.22949;949.1656;;;;
2019/08/21 05:37:22;;;;;;;3.8;1.5;;;;;;;14.55;85.92969;949.1897;;;;
2019/08/21 05:39:54;;;;;;;2.3;1.2;;;;;;;14.45;85.08301;949.1965;;;;
2019/08/21 05:42:28;;;;;;;2;1.1;;;;;;;14.5;85.72559;949.1546;;;;
2019/08/21 05:44:54;;;;;;;2.9;1.2;;;;;;;14.59;86.00781;949.2656;;;;
2019/08/21 05:47:31;;;;;;;1.8;1.2;;;;;;;14.69;85.01367;949.2461;;;;
2019/08/21 05:50:01;;;;;;;2;1;;;;;;;14.83;85.73145;949.2319;;;;
2019/08/21 05:52:30;;;;;;;2.2;1.2;;;;;;;14.92;84.99023;949.2393;;;;
2019/08/21 05:54:59;;;;;;;1.5;1.2;;;;;;;14.89;85.09863;949.2197;;;;
2019/08/21 05:57:43;;;;;;;2.1;1.2;;;;;;;14.98;84.72363;949.2399;;;;
2019/08/21 06:00:18;;;;;;;1.9;1.3;;;;;;;14.94;85.15527;949.2892;;;;
2019/08/21 06:02:51;;;;;;;2;1.4;;;;;;;;;;;;;
2019/08/21 06:08:12;;;;;;;2.1;1.3;;;;;;;;;;;;;
2019/08/21 06:10:30;;;;;;;3;1.5;;;;;;;;;;;;;
2019/08/21 06:12:53;;;;;;;2.5;1.5;;;;;;;;;;;;;
2019/08/21 06:15:20;;;;;;;2.8;1.8;;;;;;;;;;;;;
2019/08/21 06:19:21;;;;;;;3.3;1.7;;;;;;;;;;;;;
2019/08/21 06:21:48;;;;;;;1.8;1.4;;;;;;;;;;;;;
2019/08/21 06:24:15;;;;;;;2.3;1.3;;;;;;;;;;;;;
2019/08/21 06:26:41;;;;;;;2.4;1.4;;;;;;;;;;;;;
2019/08/21 06:29:01;;;;;;;1.9;1.2;;;;;;;;;;;;;
2019/08/21 06:31:31;;;;;;;1.8;1.2;;;;;;;;;;;;;
2019/08/21 06:33:53;;;;;;;3.6;1.4;;;;;;;;;;;;;
2019/08/21 06:36:34;;;;;;;2.7;1.3;;;;;;;;;;;;;
2019/08/21 06:39:00;;;;;;;2.6;1.6;;;;;;;;;;;;;
2019/08/21 06:41:26;;;;;;;2.5;1.4;;;;;;;;;;;;;
2019/08/21 06:43:55;;;;;;;2.6;1.5;;;;;;;;;;;;;
2019/08/21 06:46:22;;;;;;;1.8;1.3;;;;;;;;;;;;;
2019/08/21 06:49:12;;;;;;;2.8;1.3;;;;;;;;;;;;;
2019/08/21 06:51:15;;;;;;;1.7;1.4;;;;;;;;;;;;;
2019/08/21 06:53:40;;;;;;;3.8;1.4;;;;;;;;;;;;;
2019/08/21 06:56:11;;;;;;;1.8;1.2;;;;;;;;;;;;;
2019/08/21 06:58:34;;;;;;;2.7;1.2;;;;;;;;;;;;;
2019/08/21 07:01:02;;;;;;;2.5;1.1;;;;;;;;;;;;;
2019/08/21 07:03:30;;;;;;;1.5;1.1;;;;;;;;;;;;;
2019/08/21 07:05:51;;;;;;;2;1.3;;;;;;;;;;;;;
2019/08/21 07:08:16;;;;;;;1.4;1.2;;;;;;;;;;;;;
2019/08/21 07:10:45;;;;;;;2.9;1.4;;;;;;;;;;;;;
2019/08/21 07:13:10;;;;;;;2.2;1.3;;;;;;;;;;;;;
2019/08/21 07:15:40;;;;;;;2.9;1.3;;;;;;;;;;;;;
2019/08/21 07:18:06;;;;;;;3.5;1.3;;;;;;;;;;;;;
2019/08/21 07:20:36;;;;;;;1.9;1.3;;;;;;;;;;;;;
2019/08/21 07:22:58;;;;;;;2.2;1.4;;;;;;;;;;;;;
2019/08/21 07:25:22;;;;;;;2.5;1;;;;;;;;;;;;;
2019/08/21 07:27:47;;;;;;;1.5;1.1;;;;;;;;;;;;;
2019/08/21 07:30:15;;;;;;;2.4;1;;;;;;;;;;;;;
2019/08/21 07:32:39;;;;;;;1.8;1.1;;;;;;;;;;;;;
2019/08/21 07:35:05;;;;;;;1.9;1.1;;;;;;;;;;;;;
2019/08/21 07:37:28;;;;;;;3.9;1.3;;;;;;;;;;;;;
2019/08/21 07:40:18;;;;;;;2;1.4;;;;;;;;;;;;;
2019/08/21 07:42:34;;;;;;;1.3;1.2;;;;;;;;;;;;;
2019/08/21 07:45:03;;;;;;;2.7;1.1;;;;;;;;;;;;;
2019/08/21 07:47:27;;;;;;;1.9;1.3;;;;;;;;;;;;;
2019/08/21 07:49:55;;;;;;;2.1;1.1;;;;;;;;;;;;;
2019/08/21 07:52:19;;;;;;;1.6;1.1;;;;;;;;;;;;;
2019/08/21 07:54:45;;;;;;;2.3;1;;;;;;;;;;;;;
2019/08/21 07:57:10;;;;;;;2.2;1.2;;;;;;;;;;;;;
2019/08/21 07:59:36;;;;;;;1.4;1;;;;;;;;;;;;;
2019/08/21 08:02:12;;;;;;;1.9;1.1;;;;;;;;;;;;;
2019/08/21 08:04:35;;;;;;;1.3;0.8;;;;;;;;;;;;;
2019/08/21 08:07:01;;;;;;;2;1;;;;;;;;;;;;;
2019/08/21 08:09:34;;;;;;;1.2;0.9;;;;;;;;;;;;;
2019/08/21 08:11:56;;;;;;;1;0.9;;;;;;;;;;;;;
2019/08/21 08:14:26;;;;;;;1.2;1;;;;;;;;;;;;;
2019/08/21 08:16:47;;;;;;;1.7;0.9;;;;;;;;;;;;;
2019/08/21 08:19:21;;;;;;;1.7;0.9;;;;;;;;;;;;;
2019/08/21 08:21:44;;;;;;;1;0.9;;;;;;;;;;;;;
2019/08/21 08:24:10;;;;;;;3.9;1.1;;;;;;;;;;;;;
2019/08/21 08:26:36;;;;;;;1.6;0.7;;;;;;;;;;;;;
2019/08/21 08:29:01;;;;;;;1.8;1.1;;;;;;;;;;;;;
2019/08/21 08:31:25;;;;;;;2.3;1.1;;;;;;;;;;;;;
2019/08/21 08:33:54;;;;;;;1.9;1;;;;;;;;;;;;;
2019/08/21 08:36:18;;;;;;;1.6;1;;;;;;;;;;;;;
2019/08/21 08:38:46;;;;;;;1.8;1;;;;;;;;;;;;;
2019/08/21 08:41:10;;;;;;;2.6;1.3;;;;;;;;;;;;;
2019/08/21 08:43:37;;;;;;;3.6;1.1;;;;;;;;;;;;;
2019/08/21 08:46:04;;;;;;;1.5;1;;;;;;;;;;;;;
2019/08/21 08:48:27;;;;;;;1.5;1;;;;;;;;;;;;;
2019/08/21 08:50:57;;;;;;;2.6;1.1;;;;;;;;;;;;;
2019/08/21 08:53:25;;;;;;;1.5;1.1;;;;;;;;;;;;;
2019/08/21 08:55:50;;;;;;;2.6;1.3;;;;;;;;;;;;;
2019/08/21 08:58:15;;;;;;;2.8;1.2;;;;;;;;;;;;;
2019/08/21 09:00:41;;;;;;;2.7;1.1;;;;;;;;;;;;;
2019/08/21 09:03:07;;;;;;;1.3;1.1;;;;;;;;;;;;;
2019/08/21 09:05:31;;;;;;;2.4;1.2;;;;;;;;;;;;;
2019/08/21 09:07:55;;;;;;;2.3;1;;;;;;;;;;;;;
2019/08/21 09:10:21;;;;;;;2;1;;;;;;;;;;;;;
2019/08/21 09:12:48;;;;;;;4.5;0.8;;;;;;;;;;;;;
2019/08/21 09:15:12;;;;;;;1.9;0.9;;;;;;;;;;;;;
2019/08/21 09:17:40;;;;;;;1.5;1;;;;;;;;;;;;;
2019/08/21 09:20:08;;;;;;;1.1;0.9;;;;;;;;;;;;;
2019/08/21 09:22:29;;;;;;;2.3;0.8;;;;;;;;;;;;;
2019/08/21 09:24:56;;;;;;;2;0.9;;;;;;;;;;;;;
2019/08/21 09:27:20;;;;;;;2.1;0.8;;;;;;;;;;;;;
2019/08/21 09:29:51;;;;;;;1.6;0.8;;;;;;;;;;;;;
2019/08/21 09:32:19;;;;;;;2.5;1;;;;;;;;;;;;;
2019/08/21 09:34:42;;;;;;;2.2;1;;;;;;;;;;;;;
2019/08/21 09:37:13;;;;;;;1.2;0.8;;;;;;;;;;;;;
2019/08/21 09:39:47;;;;;;;1.9;0.8;;;;;;;;;;;;;
2019/08/21 09:42:29;;;;;;;1.7;1;;;;;;;;;;;;;
2019/08/21 09:44:51;;;;;;;1.1;0.8;;;;;;;;;;;;;
2019/08/21 09:47:18;;;;;;;2.4;0.9;;;;;;;;;;;;;
2019/08/21 09:49:51;;;;;;;1.9;1;;;;;;;;;;;;;
2019/08/21 09:52:12;;;;;;;1.3;0.9;;;;;;;;;;;;;
2019/08/21 09:54:43;;;;;;;2;1;;;;;;;;;;;;;
2019/08/21 09:57:09;;;;;;;2;1;;;;;;;;;;;;;
2019/08/21 09:59:38;;;;;;;1.4;0.9;;;;;;;;;;;;;
2019/08/21 10:02:02;;;;;;;2.7;1.1;;;;;;;;;;;;;
2019/08/21 10:04:28;;;;;;;1.6;1;;;;;;;;;;;;;
2019/08/21 10:06:53;;;;;;;1.3;1;;;;;;;;;;;;;
2019/08/21 10:09:22;;;;;;;1.4;1;;;;;;;;;;;;;
2019/08/21 10:14:18;;;;;;;2.5;1.1;;;;;;;;;;;;;
2019/08/21 10:16:45;;;;;;;2.4;1.1;;;;;;;;;;;;;
2019/08/21 10:19:07;;;;;;;2.2;1;;;;;;;;;;;;;
2019/08/21 10:21:36;;;;;;;1.3;1;;;;;;;;;;;;;
2019/08/21 10:24:01;;;;;;;1.7;1;;;;;;;;;;;;;
2019/08/21 10:26:26;;;;;;;1.5;1;;;;;;;;;;;;;
2019/08/21 10:28:54;;;;;;;1.5;0.9;;;;;;;;;;;;;
2019/08/21 10:31:20;;;;;;;1.7;1;;;;;;;;;;;;;
2019/08/21 10:33:44;;;;;;;1.5;0.9;;;;;;;;;;;;;
2019/08/21 10:36:07;;;;;;;3.8;1.1;;;;;;;;;;;;;
2019/08/21 10:38:35;;;;;;;1.1;1;;;;;;;;;;;;;
2019/08/21 10:41:18;;;;;;;2.5;1;;;;;;;;;;;;;
2019/08/21 10:43:39;;;;;;;3.3;1;;;;;;;;;;;;;
2019/08/21 10:46:07;;;;;;;2.3;1;;;;;;;;;;;;;
2019/08/21 10:48:31;;;;;;;2;1;;;;;;;;;;;;;
2019/08/21 10:51:02;;;;;;;1.9;1.2;;;;;;;;;;;;;
2019/08/21 10:53:28;;;;;;;1.5;1;;;;;;;;;;;;;
2019/08/21 10:58:19;;;;;;;2;0.9;;;;;;;;;;;;;
2019/08/21 11:01:02;;;;;;;1.1;0.9;;;;;;;;;;;;;
2019/08/21 11:03:13;;;;;;;1.7;1.1;;;;;;;;;;;;;
2019/08/21 11:05:45;;;;;;;1.4;1;;;;;;;;;;;;;
2019/08/21 11:08:11;;;;;;;1.6;0.9;;;;;;;;;;;;;
2019/08/21 11:13:13;;;;;;;2.1;1.3;;;;;;;;;;;;;
2019/08/21 11:15:38;;;;;;;2.6;1.1;;;;;;;;;;;;;
2019/08/21 11:18:01;;;;;;;2.2;1.3;;;;;;;;;;;;;
2019/08/21 11:20:29;;;;;;;2.6;1.3;;;;;;;;;;;;;
2019/08/21 11:22:55;;;;;;;2;1.3;;;;;;;;;;;;;
2019/08/21 11:25:27;;;;;;;1.5;1.2;;;;;;;;;;;;;
2019/08/21 11:27:50;;;;;;;2.3;1.1;;;;;;;;;;;;;
2019/08/21 11:30:17;;;;;;;1.8;1.1;;;;;;;;;;;;;
2019/08/21 11:32:41;;;;;;;1.9;1.3;;;;;;;;;;;;;
2019/08/21 11:35:12;;;;;;;1.7;1.3;;;;;;;;;;;;;
2019/08/21 11:37:36;;;;;;;1.5;1.2;;;;;;;;;;;;;
2019/08/21 11:40:05;;;;;;;1.6;1.3;;;;;;;;;;;;;
2019/08/21 11:42:30;;;;;;;1.1;1;;;;;;;;;;;;;
2019/08/21 11:45:02;;;;;;;2.3;1.3;;;;;;;;;;;;;
2019/08/21 11:47:26;;;;;;;1.9;1.3;;;;;;;;;;;;;
2019/08/21 11:50:17;;;;;;;2.5;1.2;;;;;;;;;;;;;
2019/08/21 11:52:32;;;;;;;2.4;1.1;;;;;;;;;;;;;
2019/08/21 11:54:56;;;;;;;1.8;1.2;;;;;;;;;;;;;
2019/08/21 11:57:26;;;;;;;2.2;1.1;;;;;;;;;;;;;
2019/08/21 11:59:51;;;;;;;2;1.2;;;;;;;;;;;;;
2019/08/21 12:05:04;;;;;;;2.5;1.2;;;;;;;;;;;;;
2019/08/21 12:07:29;;;;;;;1.6;1.1;;;;;;;;;;;;;
2019/08/21 12:09:59;;;;;;;1.3;1;;;;;;;;;;;;;
2019/08/21 12:12:22;;;;;;;1.5;1.1;;;;;;;;;;;;;
2019/08/21 12:17:22;;;;;;;2.4;1.3;;;;;;;;;;;;;
2019/08/21 12:20:04;;;;;;;2;1.2;;;;;;;;;;;;;
2019/08/21 12:22:23;;;;;;;2.2;1.1;;;;;;;;;;;;;
2019/08/21 12:24:48;;;;;;;2.1;1.3;;;;;;;;;;;;;
2019/08/21 12:27:11;;;;;;;2.1;1.3;;;;;;;;;;;;;
2019/08/21 12:29:45;;;;;;;1.6;1.2;;;;;;;;;;;;;
2019/08/21 12:32:08;;;;;;;1.4;1.1;;;;;;;;;;;;;
2019/08/21 12:34:32;;;;;;;2.3;1.4;;;;;;;;;;;;;
2019/08/21 12:37:03;;;;;;;3;1.3;;;;;;;;;;;;;
2019/08/21 12:39:27;;;;;;;2.6;1.2;;;;;;;;;;;;;
2019/08/21 12:41:59;;;;;;;2.1;1.3;;;;;;;;;;;;;
2019/08/21 12:44:23;;;;;;;1.9;1.4;;;;;;;;;;;;;
2019/08/21 12:46:55;;;;;;;2.2;1.3;;;;;;;;;;;;;
2019/08/21 12:49:16;;;;;;;2;1.3;;;;;;;;;;;;;
2019/08/21 12:51:51;;;;;;;1.9;1.1;;;;;;;;;;;;;
2019/08/21 12:54:14;;;;;;;2;1.2;;;;;;;;;;;;;
2019/08/21 12:56:44;;;;;;;2.1;1.4;;;;;;;;;;;;;
2019/08/21 12:59:10;;;;;;;2.5;1.3;;;;;;;;;;;;;
2019/08/21 13:01:34;;;;;;;2.3;1.3;;;;;;;;;;;;;
2019/08/21 13:04:01;;;;;;;2.2;1.3;;;;;;;;;;;;;
2019/08/21 13:06:27;;;;;;;2.2;1.3;;;;;;;;;;;;;
2019/08/21 13:09:00;;;;;;;4;1.2;;;;;;;;;;;;;
2019/08/21 13:11:30;;;;;;;2.2;1.3;;;;;;;;;;;;;
2019/08/21 13:13:54;;;;;;;1.8;1.3;;;;;;;;;;;;;
2019/08/21 13:16:19;;;;;;;2.7;1.5;;;;;;;;;;;;;
2019/08/21 13:18:49;;;;;;;2.1;1.4;;;;;;;;;;;;;
2019/08/21 13:21:11;;;;;;;2.3;1.5;;;;;;;;;;;;;
2019/08/21 13:23:38;;;;;;;4.1;1.4;;;;;;;;;;;;;
2019/08/21 13:26:02;;;;;;;1.7;1.3;;;;;;;;;;;;;
2019/08/21 13:28:28;;;;;;;3.2;1.3;;;;;;;;;;;;;
2019/08/21 13:30:53;;;;;;;2.2;1.4;;;;;;;;;;;;;
2019/08/21 13:33:20;;;;;;;2.7;1.3;;;;;;;;;;;;;
2019/08/21 13:35:51;;;;;;;2.5;1.5;;;;;;;;;;;;;
2019/08/21 13:38:19;;;;;;;2.5;1.4;;;;;;;;;;;;;
2019/08/21 13:40:48;;;;;;;3.3;1.3;;;;;;;;;;;;;
2019/08/21 13:43:19;;;;;;;2.3;1.4;;;;;;;;;;;;;
2019/08/21 13:45:40;;;;;;;4.2;1.2;;;;;;;;;;;;;
2019/08/21 13:48:16;;;;;;;3;1.3;;;;;;;;;;;;;
2019/08/21 13:50:50;;;;;;;3.8;1.5;;;;;;;;;;;;;
2019/08/21 13:53:12;;;;;;;2;1.6;;;;;;;;;;;;;
2019/08/21 13:55:38;;;;;;;2.3;1.4;;;;;;;;;;;;;
2019/08/21 13:58:08;;;;;;;4.3;1.5;;;;;;;;;;;;;
2019/08/21 14:00:42;;;;;;;4.2;1.8;;;;;;;;;;;;;
2019/08/21 14:03:01;;;;;;;3.6;1.5;;;;;;;;;;;;;
2019/08/21 14:05:28;;;;;;;4.5;1.6;;;;;;;;;;;;;
2019/08/21 14:07:50;;;;;;;4.3;1.9;;;;;;;;;;;;;
2019/08/21 14:10:15;;;;;;;3.1;1.7;;;;;;;;;;;;;
2019/08/21 14:12:42;;;;;;;3.2;1.7;;;;;;;;;;;;;
2019/08/21 14:15:14;;;;;;;2.1;1.3;;;;;;;;;;;;;
2019/08/21 14:17:38;;;;;;;3.4;1.5;;;;;;;;;;;;;
2019/08/21 14:20:06;;;;;;;2.5;1.5;;;;;;;;;;;;;
2019/08/21 14:22:31;;;;;;;2.3;1.5;;;;;;;;;;;;;
2019/08/21 14:24:54;;;;;;;2.7;1.6;;;;;;;;;;;;;
2019/08/21 14:27:24;;;;;;;2.6;1.4;;;;;;;;;;;;;
2019/08/21 14:29:51;;;;;;;3;1.5;;;;;;;;;;;;;
2019/08/21 14:32:23;;;;;;;3;1.4;;;;;;;;;;;;;
2019/08/21 14:34:44;;;;;;;3.5;1.5;;;;;;;;;;;;;
2019/08/21 14:37:10;;;;;;;3.2;1.4;;;;;;;;;;;;;
2019/08/21 14:39:41;;;;;;;2;1.4;;;;;;;;;;;;;
2019/08/21 14:42:01;;;;;;;2.8;1.5;;;;;;;;;;;;;
2019/08/21 14:44:28;;;;;;;2.3;1.4;;;;;;;;;;;;;
2019/08/21 14:46:51;;;;;;;1.8;1.5;;;;;;;;;;;;;
2019/08/21 14:49:23;;;;;;;3;1.3;;;;;;;;;;;;;
2019/08/21 14:51:46;;;;;;;1.7;1.4;;;;;;;;;;;;;
2019/08/21 14:54:09;;;;;;;3.2;1.5;;;;;;;;;;;;;
2019/08/21 14:56:36;;;;;;;3.3;1.5;;;;;;;;;;;;;
2019/08/21 14:59:08;;;;;;;3;1.4;;;;;;;;;;;;;
2019/08/21 15:01:39;;;;;;;2;1.3;;;;;;;;;;;;;
2019/08/21 15:04:09;;;;;;;2.3;1.4;;;;;;;;;;;;;
2019/08/21 15:06:35;;;;;;;3.5;1.4;;;;;;;;;;;;;
2019/08/21 15:09:25;;;;;;;3.3;1.7;;;;;;;;;;;;;
2019/08/21 15:12:19;;;;;;;3.2;1.3;;;;;;;;;;;;;
2019/08/21 15:14:57;;;;;;;2.6;1.4;;;;;;;;;;;;;
2019/08/21 15:17:16;;;;;;;2.1;1.5;;;;;;;;;;;;;
2019/08/21 15:19:49;;;;;;;2.2;1.4;;;;;;;;;;;;;
2019/08/21 15:22:20;;;;;;;1.7;1.4;;;;;;;;;;;;;
2019/08/21 15:24:45;;;;;;;2.5;1.5;;;;;;;;;;;;;
2019/08/21 15:27:07;;;;;;;3.5;1.4;;;;;;;;;;;;;
2019/08/21 15:29:38;;;;;;;3;1.4;;;;;;;;;;;;;
2019/08/21 15:32:06;;;;;;;5.2;1.9;;;;;;;;;;;;;
2019/08/21 15:34:30;;;;;;;3.6;1.5;;;;;;;;;;;;;
2019/08/21 15:37:00;;;;;;;1.9;1.3;;;;;;;;;;;;;
2019/08/21 15:39:30;;;;;;;2.5;1.4;;;;;;;;;;;;;
2019/08/21 15:42:05;;;;;;;2.7;1.3;;;;;;;;;;;;;
2019/08/21 15:44:27;;;;;;;2.4;1.3;;;;;;;;;;;;;
2019/08/21 15:46:58;;;;;;;3.3;1.5;;;;;;;;;;;;;
2019/08/21 15:49:29;;;;;;;3.1;1.4;;;;;;;;;;;;;
2019/08/21 15:51:55;;;;;;;3.9;1.4;;;;;;;;;;;;;
2019/08/21 15:54:25;;;;;;;5.7;1.5;;;;;;;;;;;;;
2019/08/21 15:56:50;;;;;;;3.4;1.6;;;;;;;;;;;;;
2019/08/21 15:59:18;;;;;;;4.4;1.6;;;;;;;;;;;;;
2019/08/21 16:01:42;;;;;;;2.4;1.4;;;;;;;;;;;;;
2019/08/21 16:04:10;;;;;;;3.1;1.5;;;;;;;;;;;;;
2019/08/21 16:06:40;;;;;;;2.5;1.6;;;;;;;;;;;;;
2019/08/21 16:09:14;;;;;;;3.8;1.9;;;;;;;;;;;;;
2019/08/21 16:11:46;;;;;;;5.9;1.7;;;;;;;;;;;;;
2019/08/21 16:14:12;;;;;;;3.2;1.8;;;;;;;;;;;;;
2019/08/21 16:16:38;;;;;;;4;1.9;;;;;;;;;;;;;
2019/08/21 16:19:19;;;;;;;3.7;1.8;;;;;;;;;;;;;
2019/08/21 16:21:37;;;;;;;3.7;1.9;;;;;;;;;;;;;
2019/08/21 16:24:17;;;;;;;4.4;1.8;;;;;;;;;;;;;
2019/08/21 16:26:31;;;;;;;3.2;1.8;;;;;;;;;;;;;
2019/08/21 16:28:54;;;;;;;4.8;1.8;;;;;;;;;;;;;
2019/08/21 16:31:39;;;;;;;3.1;1.7;;;;;;;;;;;;;
2019/08/21 16:33:57;;;;;;;3.3;2;;;;;;;;;;;;;
2019/08/21 16:36:24;;;;;;;4.4;1.8;;;;;;;;;;;;;
2019/08/21 16:38:47;;;;;;;2.7;1.9;;;;;;;;;;;;;
2019/08/21 16:41:31;;;;;;;3.4;2.1;;;;;;;;;;;;;
2019/08/21 16:43:54;;;;;;;4;2.1;;;;;;;;;;;;;
2019/08/21 16:46:20;;;;;;;2.3;1.9;;;;;;;;;;;;;
2019/08/21 16:48:51;;;;;;;4.1;2.1;;;;;;;;;;;;;
2019/08/21 16:51:16;;;;;;;4.4;2.2;;;;;;;;;;;;;
2019/08/21 16:53:47;;;;;;;3.1;1.9;;;;;;;;;;;;;
2019/08/21 16:56:10;;;;;;;5.6;2.2;;;;;;;;;;;;;
2019/08/21 16:58:33;;;;;;;2.6;1.8;;;;;;;;;;;;;
2019/08/21 17:01:13;;;;;;;6.8;2.2;;;;;;;;;;;;;
2019/08/21 17:03:25;;;;;;;3.7;1.7;;;;;;;;;;;;;
2019/08/21 17:05:53;;;;;;;3.3;2;;;;;;;;;;;;;
2019/08/21 17:08:25;;;;;;;4.6;2.2;;;;;;;;;;;;;
2019/08/21 17:11:25;;;;;;;4.7;2.2;;;;;;;;;;;;;
2019/08/21 17:13:48;;;;;;;4.5;2.5;;;;;;;;;;;;;
2019/08/21 17:16:19;;;;;;;3.5;2.1;;;;;;;;;;;;;
2019/08/21 17:21:09;;;;;;;6.6;3.1;;;;;;;;;;;;;
2019/08/21 17:23:39;;;;;;;4.8;3;;;;;;;;;;;;;
2019/08/21 17:26:03;;;;;;;4.7;2.9;;;;;;;;;;;;;
2019/08/21 17:28:31;;;;;;;3.5;2.6;;;;;;;;;;;;;
2019/08/21 17:30:55;;;;;;;3.7;2.7;;;;;;;;;;;;;
2019/08/21 17:34:18;;;;;;;3.6;2.4;;;;;;;;;;;;;
2019/08/21 17:35:49;;;;;;;5.4;2.5;;;;;;;;;;;;;
2019/08/21 17:38:14;;;;;;;3.9;2.4;;;;;;;;;;;;;
2019/08/21 17:40:41;;;;;;;4.4;2.5;;;;;;;;;;;;;
2019/08/21 17:43:57;;;;;;;3.7;2.4;;;;;;;;;;;;;
2019/08/21 17:46:44;;;;;;;3.9;2.5;;;;;;;;;;;;;
2019/08/21 17:48:48;;;;;;;6.2;2.5;;;;;;;;;;;;;
2019/08/21 17:53:49;;;;;;;3.6;2.8;;;;;;;;;;;;;
2019/08/21 17:56:17;;;;;;;7.3;2.8;;;;;;;;;;;;;
2019/08/21 17:58:38;;;;;;;3.7;2.4;;;;;;;;;;;;;
2019/08/21 18:01:20;;;;;;;5.4;2.5;;;;;;;;;;;;;
2019/08/21 18:03:54;;;;;;;3.6;2.3;;;;;;;;;;;;;
2019/08/21 18:06:17;;;;;;;4.1;2.5;;;;;;;;;;;;;
2019/08/21 18:08:42;;;;;;;5.6;2.5;;;;;;;;;;;;;
2019/08/21 18:11:17;;;;;;;4.2;2.3;;;;;;;;;;;;;
2019/08/21 18:13:57;;;;;;;4.5;2;;;;;;;;;;;;;
2019/08/21 18:16:15;;;;;;;5.8;2.2;;;;;;;;;;;;;
2019/08/21 18:18:29;;;;;;;7.3;2.6;;;;;;;;;;;;;
2019/08/21 18:21:23;;;;;;;4.5;2.2;;;;;;;;;;;;;
2019/08/21 18:23:34;;;;;;;4.5;2.3;;;;;;;;;;;;;
2019/08/21 18:26:05;;;;;;;5.1;2.7;;;;;;;;;;;;;
2019/08/21 18:28:24;;;;;;;6.4;2.3;;;;;;;;;;;;;
2019/08/21 18:30:53;;;;;;;5.9;2;;;;;;;;;;;;;
2019/08/21 18:33:18;;;;;;;6.2;2.4;;;;;;;;;;;;;
2019/08/21 18:35:50;;;;;;;3.6;2.1;;;;;;;;;;;;;
2019/08/21 18:38:24;;;;;;;5.9;2;;;;;;;;;;;;;
2019/08/21 18:40:48;;;;;;;3.4;2;;;;;;;;;;;;;
2019/08/21 18:43:25;;;;;;;6.8;2.2;;;;;;;;;;;;;
2019/08/21 18:45:50;;;;;;;3.9;2;;;;;;;;;;;;;
2019/08/21 18:48:13;;;;;;;3.6;2.1;;;;;;;;;;;;;
2019/08/21 18:50:43;;;;;;;5.5;1.9;;;;;;;;;;;;;
2019/08/21 18:53:07;;;;;;;5.9;2.2;;;;;;;;;;;;;
2019/08/21 18:55:33;;;;;;;3.9;2.1;;;;;;;;;;;;;
2019/08/21 18:57:58;;;;;;;3.2;2;;;;;;;;;;;;;
2019/08/21 19:00:22;;;;;;;4.9;2.4;;;;;;;;;;;;;
2019/08/21 19:02:48;;;;;;;6;2.9;;;;;;;;;;;;;
2019/08/21 19:05:16;;;;;;;4.7;3.6;;;;;;;;;;;;;
2019/08/21 19:07:43;;;;;;;5.9;2.2;;;;;;;;;;;;;
2019/08/21 19:10:11;;;;;;;3;1.9;;;;;;;;;;;;;
2019/08/21 19:12:36;;;;;;;6;2.7;;;;;;;;;;;;;
2019/08/21 19:15:08;;;;;;;7.7;4.1;;;;;;;;;;;;;
2019/08/21 19:17:30;;;;;;;6.3;2.6;;;;;;;;;;;;;
2019/08/21 19:19:54;;;;;;;5.7;2.9;;;;;;;;;;;;;
2019/08/21 19:22:27;;;;;;;6.1;2.2;;;;;;;;;;;;;
2019/08/21 19:24:47;;;;;;;5.2;2.9;;;;;;;;;;;;;
2019/08/21 19:27:21;;;;;;;10.2;3.2;;;;;;;;;;;;;
2019/08/21 19:29:43;;;;;;;4.6;2.5;;;;;;;;;;;;;
2019/08/21 19:32:18;;;;;;;3;2.1;;;;;;;;;;;;;
2019/08/21 19:34:51;;;;;;;4;2.2;;;;;;;;;;;;;
2019/08/21 19:37:14;;;;;;;3.6;2.2;;;;;;;;;;;;;
2019/08/21 19:39:43;;;;;;;4.9;2.2;;;;;;;;;;;;;
2019/08/21 19:42:13;;;;;;;6.6;2.4;;;;;;;;;;;;;
2019/08/21 19:44:35;;;;;;;4.3;2.2;;;;;;;;;;;;;
2019/08/21 19:47:25;;;;;;;8.5;2.9;;;;;;;;;;;;;
2019/08/21 19:50:07;;;;;;;9;2.9;;;;;;;;;;;;;
2019/08/21 19:52:32;;;;;;;6.4;3.2;;;;;;;;;;;;;
2019/08/21 19:55:43;;;;;;;5.6;3.5;;;;;;;;;;;;;
2019/08/21 19:57:38;;;;;;;6;3.3;;;;;;;;;;;;;
2019/08/21 20:00:21;;;;;;;4.8;3.5;;;;;;;;;;;;;
2019/08/21 20:03:24;;;;;;;3.9;3.1;;;;;;;;;;;;;
2019/08/21 20:05:42;;;;;;;7.1;3.7;;;;;;;;;;;;;
2019/08/21 20:08:07;;;;;;;7;3.8;;;;;;;;;;;;;
2019/08/21 20:13:01;;;;;;;5.7;3.5;;;;;;;;;;;;;
2019/08/21 20:15:26;;;;;;;6.6;3.7;;;;;;;;;;;;;
2019/08/21 20:18:00;;;;;;;4.4;3;;;;;;;;;;;;;
2019/08/21 20:20:31;;;;;;;5.7;3.2;;;;;;;;;;;;;
2019/08/21 20:22:57;;;;;;;4.9;3.2;;;;;;;;;;;;;
2019/08/21 20:25:24;;;;;;;8.9;3.5;;;;;;;;;;;;;
2019/08/21 20:27:59;;;;;;;5.2;3.4;;;;;;;;;;;;;
2019/08/21 20:31:16;;;;;;;6.6;3.5;;;;;;;;;;;;;
2019/08/21 20:33:18;;;;;;;6.2;3.4;;;;;;;;;;;;;
2019/08/21 20:35:30;;;;;;;8.7;3.4;;;;;;;;;;;;;
2019/08/21 20:37:52;;;;;;;7.9;3.3;;;;;;;;;;;;;
2019/08/21 20:40:17;;;;;;;5.8;3.1;;;;;;;;;;;;;
2019/08/21 20:42:49;;;;;;;9.3;3.5;;;;;;;;;;;;;
2019/08/21 20:45:42;;;;;;;4.6;2.7;;;;;;;;;;;;;
2019/08/21 20:52:11;;;;;;;5.3;3.2;;;;;;;;;;;;;
2019/08/21 20:53:53;;;;;;;6.1;3.3;;;;;;;;;;;;;
2019/08/21 20:56:06;;;;;;;7.8;3.7;;;;;;;;;;;;;
2019/08/21 21:01:32;;;;;;;5.2;3.4;;;;;;;;;;;;;
2019/08/21 21:04:04;;;;;;;4.8;3.8;;;;;;;;;;;;;